sensor_id;sensor_type;location;lat;lon;timestamp;pressure;altitude;pressure_sealevel;temperature
74485;BMP280;62942;52.462;10.846;2022-08-21T00:00:48;100890;;;
74485;BMP280;62942;52.462;10.846;2022-08-21T00:01:58;100890;;;
74485;BMP280;62942;52.462;10.846;2022-08-21T00:02:59;100890;;;
74485;BMP280;62942;52.462;10.846;2022-08-21T00:04:08;100890;;;
74485;BMP280;62942;52.462;10.846;2022-08-21T00:05:08;100890;;;
74485;BMP280;62942;52.462;10.846;2022-08-21T00:06:18;100890;;;
74485;BMP280;62942;52.462;10.846;2022-08-21T00:07:18;100890;;;
74485;BMP280;62942;52.462;10.846;2022-08-21T00:08:28;100890;;;
74485;BMP280;62942;52.462;10.846;2022-08-21T00:09:38;100890;;;
74485;BMP280;62942;52.462;10.846;2022-08-21T00:10:48;100890;;;
74485;BMP280;62942;52.462;10.846;2022-08-21T00:11:58;100890;;;
74485;BMP280;62942;52.462;10.846;2022-08-21T00:13:08;100890;;;
74485;BMP280;62942;52.462;10.846;2022-08-21T00:14:08;100900;;;
74485;BMP280;62942;52.462;10.846;2022-08-21T00:15:19;100900;;;
74485;BMP280;62942;52.462;10.846;2022-08-21T00:16:18;100900;;;
74485;BMP280;62942;52.462;10.846;2022-08-21T00:17:28;100900;;;
74485;BMP280;62942;52.462;10.846;2022-08-21T00:18:28;100900;;;
74485;BMP280;62942;52.462;10.846;2022-08-21T00:19:38;100890;;;
74485;BMP280;62942;52.462;10.846;2022-08-21T00:20:38;100900;;;
74485;BMP280;62942;52.462;10.846;2022-08-21T00:21:48;100900;;;
74485;BMP280;62942;52.462;10.846;2022-08-21T00:22:48;100890;;;
74485;BMP280;62942;52.462;10.846;2022-08-21T00:23:58;100900;;;
74485;BMP280;62942;52.462;10.846;2022-08-21T00:24:58;100900;;;
74485;BMP280;62942;52.462;10.846;2022-08-21T00:26:08;100900;;;
74485;BMP280;62942;52.462;10.846;2022-08-21T00:27:08;100900;;;
74485;BMP280;62942;52.462;10.846;2022-08-21T00:28:18;100900;;;
74485;BMP280;62942;52.462;10.846;2022-08-21T00:29:18;100900;;;
74485;BMP280;62942;52.462;10.846;2022-08-21T00:30:28;100900;;;
74485;BMP280;62942;52.462;10.846;2022-08-21T00:31:28;100900;;;
74485;BMP280;62942;52.462;10.846;2022-08-21T00:32:38;100900;;;
74485;BMP280;62942;52.462;10.846;2022-08-21T00:33:48;100900;;;
74485;BMP280;62942;52.462;10.846;2022-08-21T00:34:48;100890;;;
74485;BMP280;62942;52.462;10.846;2022-08-21T00:35:58;100900;;;
74485;BMP280;62942;52.462;10.846;2022-08-21T00:37:07;100900;;;
74485;BMP280;62942;52.462;10.846;2022-08-21T00:38:08;100900;;;
74485;BMP280;62942;52.462;10.846;2022-08-21T00:39:18;100900;;;
74485;BMP280;62942;52.462;10.846;2022-08-21T00:40:29;100890;;;
74485;BMP280;62942;52.462;10.846;2022-08-21T00:41:38;100890;;;
74485;BMP280;62942;52.462;10.846;2022-08-21T00:42:38;100890;;;
74485;BMP280;62942;52.462;10.846;2022-08-21T00:43:38;100890;;;
74485;BMP280;62942;52.462;10.846;2022-08-21T00:44:48;100890;;;
74485;BMP280;62942;52.462;10.846;2022-08-21T00:45:48;100890;;;
74485;BMP280;62942;52.462;10.846;2022-08-21T00:46:58;100890;;;
74485;BMP280;62942;52.462;10.846;2022-08-21T00:48:09;100890;;;
74485;BMP280;62942;52.462;10.846;2022-08-21T00:49:18;100890;;;
74485;BMP280;62942;52.462;10.846;2022-08-21T00:50:18;100890;;;
74485;BMP280;62942;52.462;10.846;2022-08-21T00:51:18;100890;;;
74485;BMP280;62942;52.462;10.846;2022-08-21T00:52:28;100890;;;
74485;BMP280;62942;52.462;10.846;2022-08-21T00:53:39;100890;;;
74485;BMP280;62942;52.462;10.846;2022-08-21T00:54:48;100890;;;
74485;BMP280;62942;52.462;10.846;2022-08-21T00:55:48;100890;;;
74485;BMP280;62942;52.462;10.846;2022-08-21T00:56:49;100890;;;
74485;BMP280;62942;52.462;10.846;2022-08-21T00:57:58;100880;;;
74485;BMP280;62942;52.462;10.846;2022-08-21T00:59:08;100890;;;
74485;BMP280;62942;52.462;10.846;2022-08-21T01:00:19;100890;;;
74485;BMP280;62942;52.462;10.846;2022-08-21T01:01:18;100890;;;
74485;BMP280;62942;52.462;10.846;2022-08-21T01:02:18;100890;;;
74485;BMP280;62942;52.462;10.846;2022-08-21T01:03:28;100900;;;
74485;BMP280;62942;52.462;10.846;2022-08-21T01:04:38;100900;;;
74485;BMP280;62942;52.462;10.846;2022-08-21T01:05:47;100900;;;
74485;BMP280;62942;52.462;10.846;2022-08-21T01:06:47;100900;;;
74485;BMP280;62942;52.462;10.846;2022-08-21T01:07:48;100910;;;
74485;BMP280;62942;52.462;10.846;2022-08-21T01:08:57;100900;;;
74485;BMP280;62942;52.462;10.846;2022-08-21T01:10:08;100900;;;
74485;BMP280;62942;52.462;10.846;2022-08-21T01:11:17;100900;;;
74485;BMP280;62942;52.462;10.846;2022-08-21T01:12:28;100900;;;
74485;BMP280;62942;52.462;10.846;2022-08-21T01:13:38;100900;;;
74485;BMP280;62942;52.462;10.846;2022-08-21T01:14:47;100890;;;
74485;BMP280;62942;52.462;10.846;2022-08-21T01:15:48;100890;;;
74485;BMP280;62942;52.462;10.846;2022-08-21T01:16:48;100890;;;
74485;BMP280;62942;52.462;10.846;2022-08-21T01:17:58;100900;;;
74485;BMP280;62942;52.462;10.846;2022-08-21T01:18:57;100900;;;
74485;BMP280;62942;52.462;10.846;2022-08-21T01:20:08;100900;;;
74485;BMP280;62942;52.462;10.846;2022-08-21T01:21:08;100900;;;
74485;BMP280;62942;52.462;10.846;2022-08-21T01:22:17;100890;;;
74485;BMP280;62942;52.462;10.846;2022-08-21T01:23:17;100890;;;
74485;BMP280;62942;52.462;10.846;2022-08-21T01:24:17;100900;;;
74485;BMP280;62942;52.462;10.846;2022-08-21T01:25:27;100890;;;
74485;BMP280;62942;52.462;10.846;2022-08-21T01:26:29;100890;;;
74485;BMP280;62942;52.462;10.846;2022-08-21T01:27:27;100890;;;
74485;BMP280;62942;52.462;10.846;2022-08-21T01:28:38;100890;;;
74485;BMP280;62942;52.462;10.846;2022-08-21T01:29:38;100900;;;
74485;BMP280;62942;52.462;10.846;2022-08-21T01:30:48;100900;;;
74485;BMP280;62942;52.462;10.846;2022-08-21T01:31:47;100890;;;
74485;BMP280;62942;52.462;10.846;2022-08-21T01:32:47;100890;;;
74485;BMP280;62942;52.462;10.846;2022-08-21T01:33:58;100890;;;
74485;BMP280;62942;52.462;10.846;2022-08-21T01:34:57;100890;;;
74485;BMP280;62942;52.462;10.846;2022-08-21T01:35:57;100890;;;
74485;BMP280;62942;52.462;10.846;2022-08-21T01:37:08;100900;;;
74485;BMP280;62942;52.462;10.846;2022-08-21T01:38:17;100890;;;
74485;BMP280;62942;52.462;10.846;2022-08-21T01:39:17;100890;;;
74485;BMP280;62942;52.462;10.846;2022-08-21T01:40:18;100890;;;
74485;BMP280;62942;52.462;10.846;2022-08-21T01:41:17;100890;;;
74485;BMP280;62942;52.462;10.846;2022-08-21T01:42:27;100890;;;
74485;BMP280;62942;52.462;10.846;2022-08-21T01:43:37;100890;;;
74485;BMP280;62942;52.462;10.846;2022-08-21T01:44:47;100890;;;
74485;BMP280;62942;52.462;10.846;2022-08-21T01:45:47;100890;;;
74485;BMP280;62942;52.462;10.846;2022-08-21T01:46:58;100890;;;
74485;BMP280;62942;52.462;10.846;2022-08-21T01:47:57;100890;;;
74485;BMP280;62942;52.462;10.846;2022-08-21T01:49:07;100890;;;
74485;BMP280;62942;52.462;10.846;2022-08-21T01:50:18;100890;;;
74485;BMP280;62942;52.462;10.846;2022-08-21T01:51:17;100890;;;
74485;BMP280;62942;52.462;10.846;2022-08-21T01:52:28;100890;;;
74485;BMP280;62942;52.462;10.846;2022-08-21T01:53:27;100890;;;
74485;BMP280;62942;52.462;10.846;2022-08-21T01:54:38;100890;;;
74485;BMP280;62942;52.462;10.846;2022-08-21T01:55:47;100890;;;
74485;BMP280;62942;52.462;10.846;2022-08-21T01:56:58;100890;;;
74485;BMP280;62942;52.462;10.846;2022-08-21T01:57:57;100890;;;
74485;BMP280;62942;52.462;10.846;2022-08-21T01:59:07;100890;;;
74485;BMP280;62942;52.462;10.846;2022-08-21T02:00:10;100890;;;
74485;BMP280;62942;52.462;10.846;2022-08-21T02:01:17;100880;;;
74485;BMP280;62942;52.462;10.846;2022-08-21T02:02:17;100890;;;
74485;BMP280;62942;52.462;10.846;2022-08-21T02:03:17;100890;;;
74485;BMP280;62942;52.462;10.846;2022-08-21T02:04:17;100890;;;
74485;BMP280;62942;52.462;10.846;2022-08-21T02:05:27;100880;;;
74485;BMP280;62942;52.462;10.846;2022-08-21T02:06:38;100880;;;
74485;BMP280;62942;52.462;10.846;2022-08-21T02:07:38;100880;;;
74485;BMP280;62942;52.462;10.846;2022-08-21T02:08:47;100890;;;
74485;BMP280;62942;52.462;10.846;2022-08-21T02:09:47;100890;;;
74485;BMP280;62942;52.462;10.846;2022-08-21T02:10:58;100890;;;
74485;BMP280;62942;52.462;10.846;2022-08-21T02:12:07;100890;;;
74485;BMP280;62942;52.462;10.846;2022-08-21T02:13:07;100890;;;
74485;BMP280;62942;52.462;10.846;2022-08-21T02:14:18;100900;;;
74485;BMP280;62942;52.462;10.846;2022-08-21T02:15:28;100890;;;
74485;BMP280;62942;52.462;10.846;2022-08-21T02:16:27;100890;;;
74485;BMP280;62942;52.462;10.846;2022-08-21T02:17:27;100890;;;
74485;BMP280;62942;52.462;10.846;2022-08-21T02:18:27;100890;;;
74485;BMP280;62942;52.462;10.846;2022-08-21T02:19:27;100890;;;
74485;BMP280;62942;52.462;10.846;2022-08-21T02:20:38;100890;;;
74485;BMP280;62942;52.462;10.846;2022-08-21T02:21:47;100890;;;
74485;BMP280;62942;52.462;10.846;2022-08-21T02:22:57;100900;;;
74485;BMP280;62942;52.462;10.846;2022-08-21T02:24:07;100890;;;
74485;BMP280;62942;52.462;10.846;2022-08-21T02:25:07;100890;;;
74485;BMP280;62942;52.462;10.846;2022-08-21T02:26:17;100890;;;
74485;BMP280;62942;52.462;10.846;2022-08-21T02:27:27;100890;;;
74485;BMP280;62942;52.462;10.846;2022-08-21T02:28:28;100890;;;
74485;BMP280;62942;52.462;10.846;2022-08-21T02:29:37;100890;;;
74485;BMP280;62942;52.462;10.846;2022-08-21T02:30:48;100880;;;
74485;BMP280;62942;52.462;10.846;2022-08-21T02:31:47;100880;;;
74485;BMP280;62942;52.462;10.846;2022-08-21T02:32:47;100890;;;
74485;BMP280;62942;52.462;10.846;2022-08-21T02:33:47;100890;;;
74485;BMP280;62942;52.462;10.846;2022-08-21T02:34:57;100890;;;
74485;BMP280;62942;52.462;10.846;2022-08-21T02:36:08;100890;;;
74485;BMP280;62942;52.462;10.846;2022-08-21T02:37:17;100890;;;
74485;BMP280;62942;52.462;10.846;2022-08-21T02:38:19;100880;;;
74485;BMP280;62942;52.462;10.846;2022-08-21T02:39:27;100890;;;
74485;BMP280;62942;52.462;10.846;2022-08-21T02:40:38;100890;;;
74485;BMP280;62942;52.462;10.846;2022-08-21T02:41:47;100890;;;
74485;BMP280;62942;52.462;10.846;2022-08-21T02:42:57;100890;;;
74485;BMP280;62942;52.462;10.846;2022-08-21T02:44:07;100880;;;
74485;BMP280;62942;52.462;10.846;2022-08-21T02:45:18;100880;;;
74485;BMP280;62942;52.462;10.846;2022-08-21T02:46:18;100890;;;
74485;BMP280;62942;52.462;10.846;2022-08-21T02:47:27;100890;;;
74485;BMP280;62942;52.462;10.846;2022-08-21T02:48:38;100890;;;
74485;BMP280;62942;52.462;10.846;2022-08-21T02:49:37;100880;;;
74485;BMP280;62942;52.462;10.846;2022-08-21T02:50:38;100880;;;
74485;BMP280;62942;52.462;10.846;2022-08-21T02:51:47;100880;;;
74485;BMP280;62942;52.462;10.846;2022-08-21T02:52:48;100890;;;
74485;BMP280;62942;52.462;10.846;2022-08-21T02:53:57;100880;;;
74485;BMP280;62942;52.462;10.846;2022-08-21T02:54:57;100880;;;
74485;BMP280;62942;52.462;10.846;2022-08-21T02:56:08;100880;;;
74485;BMP280;62942;52.462;10.846;2022-08-21T02:57:17;100870;;;
74485;BMP280;62942;52.462;10.846;2022-08-21T02:58:28;100870;;;
74485;BMP280;62942;52.462;10.846;2022-08-21T02:59:37;100880;;;
74485;BMP280;62942;52.462;10.846;2022-08-21T03:00:47;100870;;;
74485;BMP280;62942;52.462;10.846;2022-08-21T03:01:57;100870;;;
74485;BMP280;62942;52.462;10.846;2022-08-21T03:02:58;100870;;;
74485;BMP280;62942;52.462;10.846;2022-08-21T03:03:57;100870;;;
74485;BMP280;62942;52.462;10.846;2022-08-21T03:04:57;100870;;;
74485;BMP280;62942;52.462;10.846;2022-08-21T03:06:09;100870;;;
74485;BMP280;62942;52.462;10.846;2022-08-21T03:07:17;100870;;;
74485;BMP280;62942;52.462;10.846;2022-08-21T03:08:27;100870;;;
74485;BMP280;62942;52.462;10.846;2022-08-21T03:09:27;100880;;;
74485;BMP280;62942;52.462;10.846;2022-08-21T03:10:38;100870;;;
74485;BMP280;62942;52.462;10.846;2022-08-21T03:11:37;100870;;;
74485;BMP280;62942;52.462;10.846;2022-08-21T03:12:37;100870;;;
74485;BMP280;62942;52.462;10.846;2022-08-21T03:13:47;100870;;;
74485;BMP280;62942;52.462;10.846;2022-08-21T03:14:57;100870;;;
74485;BMP280;62942;52.462;10.846;2022-08-21T03:15:57;100870;;;
74485;BMP280;62942;52.462;10.846;2022-08-21T03:17:07;100870;;;
74485;BMP280;62942;52.462;10.846;2022-08-21T03:18:17;100870;;;
74485;BMP280;62942;52.462;10.846;2022-08-21T03:19:27;100870;;;
74485;BMP280;62942;52.462;10.846;2022-08-21T03:20:28;100870;;;
74485;BMP280;62942;52.462;10.846;2022-08-21T03:21:27;100880;;;
74485;BMP280;62942;52.462;10.846;2022-08-21T03:22:37;100870;;;
74485;BMP280;62942;52.462;10.846;2022-08-21T03:23:47;100880;;;
74485;BMP280;62942;52.462;10.846;2022-08-21T03:24:57;100880;;;
74485;BMP280;62942;52.462;10.846;2022-08-21T03:25:57;100880;;;
74485;BMP280;62942;52.462;10.846;2022-08-21T03:27:07;100880;;;
74485;BMP280;62942;52.462;10.846;2022-08-21T03:28:19;100880;;;
74485;BMP280;62942;52.462;10.846;2022-08-21T03:29:27;100880;;;
74485;BMP280;62942;52.462;10.846;2022-08-21T03:30:27;100870;;;
74485;BMP280;62942;52.462;10.846;2022-08-21T03:31:37;100870;;;
74485;BMP280;62942;52.462;10.846;2022-08-21T03:32:37;100880;;;
74485;BMP280;62942;52.462;10.846;2022-08-21T03:33:47;100880;;;
74485;BMP280;62942;52.462;10.846;2022-08-21T03:34:47;100880;;;
74485;BMP280;62942;52.462;10.846;2022-08-21T03:35:58;100880;;;
74485;BMP280;62942;52.462;10.846;2022-08-21T03:37:07;100880;;;
74485;BMP280;62942;52.462;10.846;2022-08-21T03:38:07;100880;;;
74485;BMP280;62942;52.462;10.846;2022-08-21T03:39:17;100880;;;
74485;BMP280;62942;52.462;10.846;2022-08-21T03:40:18;100880;;;
74485;BMP280;62942;52.462;10.846;2022-08-21T03:41:27;100880;;;
74485;BMP280;62942;52.462;10.846;2022-08-21T03:42:37;100880;;;
74485;BMP280;62942;52.462;10.846;2022-08-21T03:43:47;100880;;;
74485;BMP280;62942;52.462;10.846;2022-08-21T03:44:57;100870;;;
74485;BMP280;62942;52.462;10.846;2022-08-21T03:46:07;100870;;;
74485;BMP280;62942;52.462;10.846;2022-08-21T03:47:10;100870;;;
74485;BMP280;62942;52.462;10.846;2022-08-21T03:48:17;100870;;;
74485;BMP280;62942;52.462;10.846;2022-08-21T03:49:27;100870;;;
74485;BMP280;62942;52.462;10.846;2022-08-21T03:50:39;100870;;;
74485;BMP280;62942;52.462;10.846;2022-08-21T03:51:47;100860;;;
74485;BMP280;62942;52.462;10.846;2022-08-21T03:52:47;100860;;;
74485;BMP280;62942;52.462;10.846;2022-08-21T03:53:57;100860;;;
74485;BMP280;62942;52.462;10.846;2022-08-21T03:55:07;100880;;;
74485;BMP280;62942;52.462;10.846;2022-08-21T03:56:07;100880;;;
74485;BMP280;62942;52.462;10.846;2022-08-21T03:57:17;100880;;;
74485;BMP280;62942;52.462;10.846;2022-08-21T03:58:27;100880;;;
74485;BMP280;62942;52.462;10.846;2022-08-21T03:59:27;100880;;;
74485;BMP280;62942;52.462;10.846;2022-08-21T04:00:27;100880;;;
74485;BMP280;62942;52.462;10.846;2022-08-21T04:01:37;100880;;;
74485;BMP280;62942;52.462;10.846;2022-08-21T04:02:47;100880;;;
74485;BMP280;62942;52.462;10.846;2022-08-21T04:03:57;100890;;;
74485;BMP280;62942;52.462;10.846;2022-08-21T04:05:07;100890;;;
74485;BMP280;62942;52.462;10.846;2022-08-21T04:06:17;100880;;;
74485;BMP280;62942;52.462;10.846;2022-08-21T04:07:27;100890;;;
74485;BMP280;62942;52.462;10.846;2022-08-21T04:08:37;100890;;;
74485;BMP280;62942;52.462;10.846;2022-08-21T04:09:47;100880;;;
74485;BMP280;62942;52.462;10.846;2022-08-21T04:10:48;100890;;;
74485;BMP280;62942;52.462;10.846;2022-08-21T04:11:57;100890;;;
74485;BMP280;62942;52.462;10.846;2022-08-21T04:12:57;100880;;;
74485;BMP280;62942;52.462;10.846;2022-08-21T04:14:07;100890;;;
74485;BMP280;62942;52.462;10.846;2022-08-21T04:15:17;100890;;;
74485;BMP280;62942;52.462;10.846;2022-08-21T04:16:27;100890;;;
74485;BMP280;62942;52.462;10.846;2022-08-21T04:17:27;100890;;;
74485;BMP280;62942;52.462;10.846;2022-08-21T04:18:37;100890;;;
74485;BMP280;62942;52.462;10.846;2022-08-21T04:19:37;100890;;;
74485;BMP280;62942;52.462;10.846;2022-08-21T04:20:48;100890;;;
74485;BMP280;62942;52.462;10.846;2022-08-21T04:21:57;100890;;;
74485;BMP280;62942;52.462;10.846;2022-08-21T04:23:07;100890;;;
74485;BMP280;62942;52.462;10.846;2022-08-21T04:24:17;100890;;;
74485;BMP280;62942;52.462;10.846;2022-08-21T04:25:27;100890;;;
74485;BMP280;62942;52.462;10.846;2022-08-21T04:26:38;100890;;;
74485;BMP280;62942;52.462;10.846;2022-08-21T04:27:47;100890;;;
74485;BMP280;62942;52.462;10.846;2022-08-21T04:28:57;100890;;;
74485;BMP280;62942;52.462;10.846;2022-08-21T04:30:08;100890;;;
74485;BMP280;62942;52.462;10.846;2022-08-21T04:31:07;100900;;;
74485;BMP280;62942;52.462;10.846;2022-08-21T04:32:21;100900;;;
74485;BMP280;62942;52.462;10.846;2022-08-21T04:33:27;100890;;;
74485;BMP280;62942;52.462;10.846;2022-08-21T04:34:27;100910;;;
74485;BMP280;62942;52.462;10.846;2022-08-21T04:35:37;100900;;;
74485;BMP280;62942;52.462;10.846;2022-08-21T04:36:37;100910;;;
74485;BMP280;62942;52.462;10.846;2022-08-21T04:37:47;100900;;;
74485;BMP280;62942;52.462;10.846;2022-08-21T04:38:57;100910;;;
74485;BMP280;62942;52.462;10.846;2022-08-21T04:40:08;100900;;;
74485;BMP280;62942;52.462;10.846;2022-08-21T04:41:07;100900;;;
74485;BMP280;62942;52.462;10.846;2022-08-21T04:42:17;100900;;;
74485;BMP280;62942;52.462;10.846;2022-08-21T04:43:17;100910;;;
74485;BMP280;62942;52.462;10.846;2022-08-21T04:44:27;100900;;;
74485;BMP280;62942;52.462;10.846;2022-08-21T04:45:38;100910;;;
74485;BMP280;62942;52.462;10.846;2022-08-21T04:46:47;100910;;;
74485;BMP280;62942;52.462;10.846;2022-08-21T04:47:58;100910;;;
74485;BMP280;62942;52.462;10.846;2022-08-21T04:48:57;100910;;;
74485;BMP280;62942;52.462;10.846;2022-08-21T04:50:07;100910;;;
74485;BMP280;62942;52.462;10.846;2022-08-21T04:51:08;100910;;;
74485;BMP280;62942;52.462;10.846;2022-08-21T04:52:18;100920;;;
74485;BMP280;62942;52.462;10.846;2022-08-21T04:53:18;100910;;;
74485;BMP280;62942;52.462;10.846;2022-08-21T04:54:27;100920;;;
74485;BMP280;62942;52.462;10.846;2022-08-21T04:55:37;100920;;;
74485;BMP280;62942;52.462;10.846;2022-08-21T04:56:48;100910;;;
74485;BMP280;62942;52.462;10.846;2022-08-21T04:57:47;100910;;;
74485;BMP280;62942;52.462;10.846;2022-08-21T04:58:47;100910;;;
74485;BMP280;62942;52.462;10.846;2022-08-21T04:59:48;100910;;;
74485;BMP280;62942;52.462;10.846;2022-08-21T05:00:47;100910;;;
74485;BMP280;62942;52.462;10.846;2022-08-21T05:01:47;100910;;;
74485;BMP280;62942;52.462;10.846;2022-08-21T05:02:57;100910;;;
74485;BMP280;62942;52.462;10.846;2022-08-21T05:03:57;100910;;;
74485;BMP280;62942;52.462;10.846;2022-08-21T05:05:07;100910;;;
74485;BMP280;62942;52.462;10.846;2022-08-21T05:06:17;100910;;;
74485;BMP280;62942;52.462;10.846;2022-08-21T05:07:19;100910;;;
74485;BMP280;62942;52.462;10.846;2022-08-21T05:08:18;100910;;;
74485;BMP280;62942;52.462;10.846;2022-08-21T05:09:28;100910;;;
74485;BMP280;62942;52.462;10.846;2022-08-21T05:10:37;100920;;;
74485;BMP280;62942;52.462;10.846;2022-08-21T05:11:47;100920;;;
74485;BMP280;62942;52.462;10.846;2022-08-21T05:12:47;100920;;;
74485;BMP280;62942;52.462;10.846;2022-08-21T05:13:57;100920;;;
74485;BMP280;62942;52.462;10.846;2022-08-21T05:15:07;100920;;;
74485;BMP280;62942;52.462;10.846;2022-08-21T05:16:07;100920;;;
74485;BMP280;62942;52.462;10.846;2022-08-21T05:17:17;100920;;;
74485;BMP280;62942;52.462;10.846;2022-08-21T05:18:27;100920;;;
74485;BMP280;62942;52.462;10.846;2022-08-21T05:19:37;100920;;;
74485;BMP280;62942;52.462;10.846;2022-08-21T05:20:37;100920;;;
74485;BMP280;62942;52.462;10.846;2022-08-21T05:21:47;100920;;;
74485;BMP280;62942;52.462;10.846;2022-08-21T05:22:57;100920;;;
74485;BMP280;62942;52.462;10.846;2022-08-21T05:24:07;100920;;;
74485;BMP280;62942;52.462;10.846;2022-08-21T05:25:17;100920;;;
74485;BMP280;62942;52.462;10.846;2022-08-21T05:26:27;100920;;;
74485;BMP280;62942;52.462;10.846;2022-08-21T05:27:37;100920;;;
74485;BMP280;62942;52.462;10.846;2022-08-21T05:28:47;100930;;;
74485;BMP280;62942;52.462;10.846;2022-08-21T05:29:57;100910;;;
74485;BMP280;62942;52.462;10.846;2022-08-21T05:31:07;100930;;;
74485;BMP280;62942;52.462;10.846;2022-08-21T05:32:08;100930;;;
74485;BMP280;62942;52.462;10.846;2022-08-21T05:33:07;100930;;;
74485;BMP280;62942;52.462;10.846;2022-08-21T05:34:18;100930;;;
74485;BMP280;62942;52.462;10.846;2022-08-21T05:35:28;100930;;;
74485;BMP280;62942;52.462;10.846;2022-08-21T05:36:27;100930;;;
74485;BMP280;62942;52.462;10.846;2022-08-21T05:37:37;100930;;;
74485;BMP280;62942;52.462;10.846;2022-08-21T05:38:47;100930;;;
74485;BMP280;62942;52.462;10.846;2022-08-21T05:39:58;100930;;;
74485;BMP280;62942;52.462;10.846;2022-08-21T05:41:07;100930;;;
74485;BMP280;62942;52.462;10.846;2022-08-21T05:42:07;100930;;;
74485;BMP280;62942;52.462;10.846;2022-08-21T05:43:07;100930;;;
74485;BMP280;62942;52.462;10.846;2022-08-21T05:44:17;100930;;;
74485;BMP280;62942;52.462;10.846;2022-08-21T05:45:28;100930;;;
74485;BMP280;62942;52.462;10.846;2022-08-21T05:46:37;100940;;;
74485;BMP280;62942;52.462;10.846;2022-08-21T05:47:37;100940;;;
74485;BMP280;62942;52.462;10.846;2022-08-21T05:48:47;100940;;;
74485;BMP280;62942;52.462;10.846;2022-08-21T05:49:57;100930;;;
74485;BMP280;62942;52.462;10.846;2022-08-21T05:51:08;100930;;;
74485;BMP280;62942;52.462;10.846;2022-08-21T05:52:18;100930;;;
74485;BMP280;62942;52.462;10.846;2022-08-21T05:53:18;100930;;;
74485;BMP280;62942;52.462;10.846;2022-08-21T05:54:17;100930;;;
74485;BMP280;62942;52.462;10.846;2022-08-21T05:55:27;100930;;;
74485;BMP280;62942;52.462;10.846;2022-08-21T05:56:37;100930;;;
74485;BMP280;62942;52.462;10.846;2022-08-21T05:57:47;100930;;;
74485;BMP280;62942;52.462;10.846;2022-08-21T05:58:47;100920;;;
74485;BMP280;62942;52.462;10.846;2022-08-21T05:59:57;100910;;;
74485;BMP280;62942;52.462;10.846;2022-08-21T06:00:57;100910;;;
74485;BMP280;62942;52.462;10.846;2022-08-21T06:02:07;100910;;;
74485;BMP280;62942;52.462;10.846;2022-08-21T06:03:10;100910;;;
74485;BMP280;62942;52.462;10.846;2022-08-21T06:04:17;100910;;;
74485;BMP280;62942;52.462;10.846;2022-08-21T06:05:27;100920;;;
74485;BMP280;62942;52.462;10.846;2022-08-21T06:06:27;100930;;;
74485;BMP280;62942;52.462;10.846;2022-08-21T06:07:27;100910;;;
74485;BMP280;62942;52.462;10.846;2022-08-21T06:08:37;100920;;;
74485;BMP280;62942;52.462;10.846;2022-08-21T06:09:37;100930;;;
74485;BMP280;62942;52.462;10.846;2022-08-21T06:10:47;100930;;;
74485;BMP280;62942;52.462;10.846;2022-08-21T06:11:57;100930;;;
74485;BMP280;62942;52.462;10.846;2022-08-21T06:13:07;100930;;;
74485;BMP280;62942;52.462;10.846;2022-08-21T06:14:07;100930;;;
74485;BMP280;62942;52.462;10.846;2022-08-21T06:15:17;100930;;;
74485;BMP280;62942;52.462;10.846;2022-08-21T06:16:27;100930;;;
74485;BMP280;62942;52.462;10.846;2022-08-21T06:17:37;100930;;;
74485;BMP280;62942;52.462;10.846;2022-08-21T06:18:47;100930;;;
74485;BMP280;62942;52.462;10.846;2022-08-21T06:19:50;100930;;;
74485;BMP280;62942;52.462;10.846;2022-08-21T06:20:57;100920;;;
74485;BMP280;62942;52.462;10.846;2022-08-21T06:22:07;100920;;;
74485;BMP280;62942;52.462;10.846;2022-08-21T06:23:17;100920;;;
74485;BMP280;62942;52.462;10.846;2022-08-21T06:24:27;100930;;;
74485;BMP280;62942;52.462;10.846;2022-08-21T06:25:27;100920;;;
74485;BMP280;62942;52.462;10.846;2022-08-21T06:26:37;100930;;;
74485;BMP280;62942;52.462;10.846;2022-08-21T06:27:47;100920;;;
74485;BMP280;62942;52.462;10.846;2022-08-21T06:28:47;100920;;;
74485;BMP280;62942;52.462;10.846;2022-08-21T06:29:57;100920;;;
74485;BMP280;62942;52.462;10.846;2022-08-21T06:31:11;100920;;;
74485;BMP280;62942;52.462;10.846;2022-08-21T06:32:17;100920;;;
74485;BMP280;62942;52.462;10.846;2022-08-21T06:33:27;100910;;;
74485;BMP280;62942;52.462;10.846;2022-08-21T06:34:37;100920;;;
74485;BMP280;62942;52.462;10.846;2022-08-21T06:35:47;100910;;;
74485;BMP280;62942;52.462;10.846;2022-08-21T06:36:57;100920;;;
74485;BMP280;62942;52.462;10.846;2022-08-21T06:37:58;100910;;;
74485;BMP280;62942;52.462;10.846;2022-08-21T06:39:07;100910;;;
74485;BMP280;62942;52.462;10.846;2022-08-21T06:40:17;100910;;;
74485;BMP280;62942;52.462;10.846;2022-08-21T06:41:27;100910;;;
74485;BMP280;62942;52.462;10.846;2022-08-21T06:42:37;100910;;;
74485;BMP280;62942;52.462;10.846;2022-08-21T06:43:47;100910;;;
74485;BMP280;62942;52.462;10.846;2022-08-21T06:44:47;100910;;;
74485;BMP280;62942;52.462;10.846;2022-08-21T06:45:57;100900;;;
74485;BMP280;62942;52.462;10.846;2022-08-21T06:47:07;100900;;;
74485;BMP280;62942;52.462;10.846;2022-08-21T06:48:17;100910;;;
74485;BMP280;62942;52.462;10.846;2022-08-21T06:49:17;100910;;;
74485;BMP280;62942;52.462;10.846;2022-08-21T06:50:17;100910;;;
74485;BMP280;62942;52.462;10.846;2022-08-21T06:51:17;100900;;;
74485;BMP280;62942;52.462;10.846;2022-08-21T06:52:17;100900;;;
74485;BMP280;62942;52.462;10.846;2022-08-21T06:53:27;100900;;;
74485;BMP280;62942;52.462;10.846;2022-08-21T06:54:27;100900;;;
74485;BMP280;62942;52.462;10.846;2022-08-21T06:55:27;100890;;;
74485;BMP280;62942;52.462;10.846;2022-08-21T06:56:27;100900;;;
74485;BMP280;62942;52.462;10.846;2022-08-21T06:57:37;100890;;;
74485;BMP280;62942;52.462;10.846;2022-08-21T06:58:37;100890;;;